Time;durP1;ratioP1;P1;durP2;ratioP2;P2;SDS_P1;SDS_P2;PMS_P1;PMS_P2;Temp;Humidity;BMP_temperature;BMP_pressure;BME280_temperature;BME280_humidity;BME280_pressure;Samples;Min_cycle;Max_cycle;Signal;HPM_P1;HPM_P2
2022/11/22 00:02:17;;;;;;;1.85;1.15;;;;;;;;;;4909137;29;20044;-84
2022/11/22 00:04:42;;;;;;;2.47;1.02;;;;;;;;;;4893129;29;20037;-84
2022/11/22 00:07:08;;;;;;;1.95;1.05;;;;;;;;;;4910852;29;20037;-83
2022/11/22 00:09:34;;;;;;;2.28;1.10;;;;;;;;;;4877641;29;20118;-86
2022/11/22 00:11:59;;;;;;;1.42;1.00;;;;;;;;;;4911527;29;20036;-83
2022/11/22 00:14:24;;;;;;;1.90;1.08;;;;;;;;;;4897908;29;20044;-85
2022/11/22 00:16:50;;;;;;;1.48;1.00;;;;;;;;;;4911382;29;20040;-87
2022/11/22 00:19:15;;;;;;;1.52;1.20;;;;;;;;;;4911365;29;20044;-84
2022/11/22 00:21:41;;;;;;;1.30;1.10;;;;;;;;;;4912663;29;20037;-84
2022/11/22 00:24:06;;;;;;;5.60;1.10;;;;;;;;;;4910410;29;20549;-84
2022/11/22 00:26:32;;;;;;;1.60;1.10;;;;;;;;;;4910967;29;20052;-85
2022/11/22 00:28:57;;;;;;;1.63;1.00;;;;;;;;;;4894035;29;20056;-85
2022/11/22 00:31:23;;;;;;;1.20;1.00;;;;;;;;;;4911341;29;20024;-85
2022/11/22 00:33:48;;;;;;;1.45;1.17;;;;;;;;;;4893477;29;20048;-86
2022/11/22 00:36:16;;;;;;;1.85;1.13;;;;;;;;;;4913392;29;20037;-83
2022/11/22 00:38:42;;;;;;;1.83;1.10;;;;;;;;;;4908883;29;20047;-84
2022/11/22 00:41:07;;;;;;;1.85;1.20;;;;;;;;;;4911461;29;20036;-83
2022/11/22 00:43:33;;;;;;;1.63;1.20;;;;;;;;;;4909709;29;20035;-85
2022/11/22 00:45:59;;;;;;;1.92;1.10;;;;;;;;;;4909750;29;20076;-84
2022/11/22 00:48:25;;;;;;;1.90;1.25;;;;;;;;;;4892976;29;20035;-85
2022/11/22 00:50:50;;;;;;;2.60;1.20;;;;;;;;;;4909472;29;20112;-84
2022/11/22 00:53:16;;;;;;;1.85;1.00;;;;;;;;;;4892569;29;20067;-85
2022/11/22 00:55:41;;;;;;;1.70;1.10;;;;;;;;;;4893502;29;20035;-85
2022/11/22 00:58:06;;;;;;;1.40;0.98;;;;;;;;;;4910406;29;20021;-85
2022/11/22 01:00:32;;;;;;;1.40;1.08;;;;;;;;;;4910530;29;20565;-85
2022/11/22 01:02:57;;;;;;;1.70;1.10;;;;;;;;;;4909135;29;20048;-86
2022/11/22 01:05:23;;;;;;;1.63;1.15;;;;;;;;;;4909054;29;20040;-83
2022/11/22 01:07:48;;;;;;;3.80;1.40;;;;;;;;;;4892426;29;20032;-84
2022/11/22 01:10:14;;;;;;;3.20;1.70;;;;;;;;;;4908634;29;20048;-85
2022/11/22 01:12:40;;;;;;;2.65;1.60;;;;;;;;;;4908850;29;20511;-85
2022/11/22 01:15:05;;;;;;;3.00;1.80;;;;;;;;;;4907156;29;20047;-84
2022/11/22 01:17:31;;;;;;;3.10;1.80;;;;;;;;;;4907907;29;20033;-84
2022/11/22 01:19:56;;;;;;;3.28;1.80;;;;;;;;;;4890979;29;20040;-84
2022/11/22 01:22:22;;;;;;;3.85;1.70;;;;;;;;;;4908032;29;20092;-84
2022/11/22 01:24:47;;;;;;;3.90;1.80;;;;;;;;;;4908247;29;20109;-82
2022/11/22 01:27:13;;;;;;;3.72;1.70;;;;;;;;;;4907539;29;20120;-84
2022/11/22 01:29:38;;;;;;;3.10;1.50;;;;;;;;;;4909190;29;20096;-84
2022/11/22 01:32:04;;;;;;;3.15;1.58;;;;;;;;;;4908219;29;20040;-84
2022/11/22 01:34:30;;;;;;;3.60;1.48;;;;;;;;;;4890515;29;20037;-84
2022/11/22 01:36:55;;;;;;;2.58;1.60;;;;;;;;;;4891353;29;20068;-83
2022/11/22 01:39:21;;;;;;;2.53;1.60;;;;;;;;;;4907711;29;20502;-84
2022/11/22 01:41:46;;;;;;;2.80;1.52;;;;;;;;;;4907895;29;20084;-84
2022/11/22 01:44:25;;;;;;;2.92;1.60;;;;;;;;;;4908069;29;20037;-84
2022/11/22 01:47:24;;;;;;;3.38;1.60;;;;;;;;;;4891523;29;20047;-84
2022/11/22 01:49:58;;;;;;;2.20;1.45;;;;;;;;;;4854415;29;20072;-83
2022/11/22 01:52:27;;;;;;;2.25;1.30;;;;;;;;;;4908512;29;20032;-85
2022/11/22 01:54:59;;;;;;;2.42;1.50;;;;;;;;;;4891316;29;20522;-85
2022/11/22 01:57:31;;;;;;;3.13;1.60;;;;;;;;;;4908728;29;20100;-83
2022/11/22 02:00:01;;;;;;;2.35;1.48;;;;;;;;;;4907892;29;20301;-84
2022/11/22 02:02:31;;;;;;;;;;;;;;;;;;4909888;29;20068;-81
2022/11/22 02:05:01;;;;;;;2.47;1.70;;;;;;;;;;4891044;29;19915;-83
2022/11/22 02:07:34;;;;;;;4.15;1.98;;;;;;;;;;4875779;29;20114;-85
2022/11/22 02:09:59;;;;;;;3.53;1.85;;;;;;;;;;4907017;29;20185;-85
2022/11/22 02:12:28;;;;;;;2.20;1.60;;;;;;;;;;4890338;29;20112;-83
2022/11/22 02:14:54;;;;;;;3.22;1.60;;;;;;;;;;4906903;29;20021;-84
2022/11/22 02:17:20;;;;;;;3.25;1.58;;;;;;;;;;4907798;29;20568;-84
2022/11/22 02:19:48;;;;;;;4.20;1.52;;;;;;;;;;4907818;29;20073;-83
2022/11/22 02:22:22;;;;;;;2.05;1.33;;;;;;;;;;4908965;29;20059;-84
2022/11/22 02:24:56;;;;;;;2.75;1.70;;;;;;;;;;4875331;29;20044;-83
2022/11/22 02:27:22;;;;;;;2.17;1.50;;;;;;;;;;4890639;29;20041;-83
2022/11/22 02:29:48;;;;;;;3.78;1.98;;;;;;;;;;4908142;29;20084;-82
2022/11/22 02:32:13;;;;;;;3.20;1.80;;;;;;;;;;4908147;29;20550;-83
2022/11/22 02:34:44;;;;;;;3.10;1.83;;;;;;;;;;4890157;29;20025;-85
2022/11/22 02:37:13;;;;;;;2.72;1.50;;;;;;;;;;4907517;29;20048;-84
2022/11/22 02:39:40;;;;;;;4.57;1.40;;;;;;;;;;4893144;29;20648;-85
2022/11/22 02:42:06;;;;;;;3.33;1.60;;;;;;;;;;4912126;29;20044;-84
2022/11/22 02:44:32;;;;;;;1.92;1.35;;;;;;;;;;4894440;29;20048;-83
2022/11/22 02:46:57;;;;;;;2.00;1.25;;;;;;;;;;4911513;29;20041;-83
2022/11/22 02:49:24;;;;;;;1.85;1.20;;;;;;;;;;4894704;29;20043;-82
2022/11/22 02:51:51;;;;;;;1.88;1.25;;;;;;;;;;4910918;29;20056;-83
2022/11/22 02:54:16;;;;;;;2.78;1.25;;;;;;;;;;4910274;29;20040;-84
2022/11/22 02:56:42;;;;;;;1.20;0.98;;;;;;;;;;4910546;29;20107;-85
2022/11/22 02:59:08;;;;;;;2.17;1.25;;;;;;;;;;4893541;29;20029;-84
2022/11/22 03:01:33;;;;;;;1.48;1.10;;;;;;;;;;4894400;29;20486;-84
2022/11/22 03:03:59;;;;;;;2.03;1.23;;;;;;;;;;4911337;29;20033;-83
2022/11/22 03:06:24;;;;;;;1.55;1.17;;;;;;;;;;4910033;29;20068;-84
2022/11/22 03:08:50;;;;;;;2.00;1.20;;;;;;;;;;4911047;29;20032;-84
2022/11/22 03:11:15;;;;;;;2.45;1.35;;;;;;;;;;4910504;29;20048;-84
2022/11/22 03:13:41;;;;;;;2.08;1.40;;;;;;;;;;4909385;29;20116;-84
2022/11/22 03:16:07;;;;;;;1.88;1.23;;;;;;;;;;4910087;29;20051;-85
2022/11/22 03:18:34;;;;;;;3.65;1.40;;;;;;;;;;4910405;29;20048;-83
2022/11/22 03:21:04;;;;;;;2.20;1.17;;;;;;;;;;4909961;29;20053;-84
2022/11/22 03:23:30;;;;;;;3.15;1.33;;;;;;;;;;4910879;29;20466;-84
2022/11/22 03:25:55;;;;;;;2.53;1.50;;;;;;;;;;4910387;29;20096;-84
2022/11/22 03:28:21;;;;;;;3.33;1.30;;;;;;;;;;4910599;29;20104;-84
2022/11/22 03:30:46;;;;;;;2.20;1.30;;;;;;;;;;4909486;29;20047;-85
2022/11/22 03:33:12;;;;;;;1.85;1.20;;;;;;;;;;4910409;29;20036;-84
2022/11/22 03:35:38;;;;;;;2.42;1.30;;;;;;;;;;4910261;29;20490;-83
2022/11/22 03:38:03;;;;;;;3.13;1.40;;;;;;;;;;4893822;29;20045;-84
2022/11/22 03:40:29;;;;;;;1.88;1.20;;;;;;;;;;4910307;29;20045;-84
2022/11/22 03:43:00;;;;;;;2.47;1.42;;;;;;;;;;4893290;29;20033;-84
2022/11/22 03:45:30;;;;;;;1.58;1.10;;;;;;;;;;4893428;29;20048;-85
2022/11/22 03:47:55;;;;;;;2.75;1.38;;;;;;;;;;4909652;29;20071;-85
2022/11/22 03:50:22;;;;;;;2.35;1.23;;;;;;;;;;4908974;29;20039;-86
2022/11/22 03:52:47;;;;;;;2.85;1.30;;;;;;;;;;4910383;29;20497;-85
2022/11/22 03:55:13;;;;;;;2.05;1.30;;;;;;;;;;4909671;29;20029;-83
2022/11/22 03:57:38;;;;;;;2.50;1.40;;;;;;;;;;4911399;29;20044;-84
2022/11/22 04:00:05;;;;;;;2.50;1.40;;;;;;;;;;4910996;29;20036;-84
2022/11/22 04:02:37;;;;;;;;;;;;;;;;;;4911279;29;20055;-79
2022/11/22 04:05:03;;;;;;;2.20;1.50;;;;;;;;;;4910491;29;19923;-84
2022/11/22 04:07:28;;;;;;;1.85;1.30;;;;;;;;;;4909964;29;20041;-83
2022/11/22 04:09:53;;;;;;;1.73;1.20;;;;;;;;;;4909821;29;20121;-85
2022/11/22 04:12:19;;;;;;;2.63;1.20;;;;;;;;;;4891809;29;20051;-82
2022/11/22 04:17:42;;;;;;;1.52;1.13;;;;;;;;;;4908687;29;20040;-82
2022/11/22 04:22:57;;;;;;;1.98;1.33;;;;;;;;;;4892518;29;20105;-83
2022/11/22 04:25:27;;;;;;;2.00;1.40;;;;;;;;;;4909940;29;20065;-84
2022/11/22 04:27:53;;;;;;;2.17;1.38;;;;;;;;;;4910352;29;20029;-84
2022/11/22 04:30:18;;;;;;;2.53;1.50;;;;;;;;;;4909986;29;20032;-85
2022/11/22 04:32:44;;;;;;;5.15;1.77;;;;;;;;;;4909997;29;20043;-83
2022/11/22 04:35:10;;;;;;;2.40;1.60;;;;;;;;;;4909497;29;20055;-83
2022/11/22 04:37:35;;;;;;;1.73;1.30;;;;;;;;;;4892226;29;20135;-84
2022/11/22 04:40:00;;;;;;;2.38;1.50;;;;;;;;;;4908897;29;20056;-85
2022/11/22 04:45:10;;;;;;;2.30;1.33;;;;;;;;;;4909345;29;20040;-85
2022/11/22 04:53:04;;;;;;;3.03;1.73;;;;;;;;;;4909835;29;19915;-84
2022/11/22 04:55:29;;;;;;;2.85;1.63;;;;;;;;;;4891938;29;20544;-85
2022/11/22 04:57:54;;;;;;;4.60;1.70;;;;;;;;;;4908593;29;20080;-83
2022/11/22 05:00:20;;;;;;;2.42;1.50;;;;;;;;;;4909763;29;20036;-84
2022/11/22 05:02:45;;;;;;;4.15;1.50;;;;;;;;;;4908715;29;20072;-85
2022/11/22 05:05:11;;;;;;;1.92;1.42;;;;;;;;;;4909593;29;20096;-83
2022/11/22 05:07:36;;;;;;;2.90;1.85;;;;;;;;;;4909385;29;20033;-84
2022/11/22 05:10:03;;;;;;;5.20;2.72;;;;;;;;;;4909392;29;20499;-84
2022/11/22 05:12:28;;;;;;;6.95;4.45;;;;;;;;;;4909231;29;20056;-84
2022/11/22 05:14:54;;;;;;;8.05;5.18;;;;;;;;;;4891948;29;20051;-84
2022/11/22 05:17:19;;;;;;;6.28;3.70;;;;;;;;;;4909530;29;20047;-83
2022/11/22 05:19:45;;;;;;;5.88;3.47;;;;;;;;;;4893149;29;20040;-84
2022/11/22 05:22:10;;;;;;;6.15;3.50;;;;;;;;;;4908682;29;20047;-85
2022/11/22 05:24:35;;;;;;;6.22;3.75;;;;;;;;;;4908833;29;20039;-84
2022/11/22 05:27:01;;;;;;;5.45;3.45;;;;;;;;;;4908542;29;20040;-85
2022/11/22 05:29:26;;;;;;;4.25;3.05;;;;;;;;;;4908934;29;20103;-84
2022/11/22 05:31:52;;;;;;;3.83;2.70;;;;;;;;;;4892217;29;20410;-84
2022/11/22 05:34:17;;;;;;;4.28;2.50;;;;;;;;;;4908311;29;20135;-84
2022/11/22 05:36:43;;;;;;;8.23;4.47;;;;;;;;;;4909046;29;20100;-84
2022/11/22 05:41:54;;;;;;;11.75;7.10;;;;;;;;;;4856836;29;20054;-87
2022/11/22 05:44:21;;;;;;;7.00;4.40;;;;;;;;;;4869701;29;20586;-89
2022/11/22 05:46:46;;;;;;;4.03;2.90;;;;;;;;;;4860735;29;20124;-89
2022/11/22 05:49:12;;;;;;;3.15;2.40;;;;;;;;;;4843943;29;20124;-89
2022/11/22 05:51:37;;;;;;;5.65;3.47;;;;;;;;;;4862541;29;20048;-90
2022/11/22 05:54:03;;;;;;;2.92;2.22;;;;;;;;;;4846765;29;20499;-90
2022/11/22 05:56:28;;;;;;;3.63;2.40;;;;;;;;;;4862533;29;20527;-89
2022/11/22 05:58:53;;;;;;;2.95;1.95;;;;;;;;;;4877825;29;20029;-90
2022/11/22 06:01:21;;;;;;;4.00;2.03;;;;;;;;;;4863025;29;20461;-89
2022/11/22 06:03:47;;;;;;;2.67;1.85;;;;;;;;;;4880115;29;20052;-89
2022/11/22 06:06:13;;;;;;;3.50;1.70;;;;;;;;;;4863072;29;20483;-89
2022/11/22 06:08:41;;;;;;;3.10;2.00;;;;;;;;;;4863469;29;20093;-90
2022/11/22 06:11:10;;;;;;;4.97;1.95;;;;;;;;;;4879832;29;20041;-89
2022/11/22 06:13:38;;;;;;;2.75;1.95;;;;;;;;;;4881741;29;20430;-89
2022/11/22 06:16:05;;;;;;;2.65;1.80;;;;;;;;;;4866523;29;20041;-89
2022/11/22 06:18:31;;;;;;;3.45;2.10;;;;;;;;;;4866493;29;20059;-88
2022/11/22 06:21:01;;;;;;;3.75;2.40;;;;;;;;;;4883522;29;20033;-89
2022/11/22 06:23:28;;;;;;;3.95;2.10;;;;;;;;;;4883700;29;20115;-89
2022/11/22 06:25:57;;;;;;;3.75;2.10;;;;;;;;;;4883786;29;20037;-89
2022/11/22 06:28:23;;;;;;;2.45;1.80;;;;;;;;;;4866260;29;20033;-90
2022/11/22 06:30:48;;;;;;;2.95;1.90;;;;;;;;;;4883127;29;20036;-89
2022/11/22 06:33:14;;;;;;;2.70;2.00;;;;;;;;;;4883183;29;20560;-89
2022/11/22 06:35:39;;;;;;;3.42;2.03;;;;;;;;;;4882916;29;20127;-89
2022/11/22 06:38:04;;;;;;;4.47;3.00;;;;;;;;;;4882391;29;20033;-88
2022/11/22 06:40:30;;;;;;;3.33;2.20;;;;;;;;;;4881676;29;20395;-86
2022/11/22 06:42:56;;;;;;;4.50;2.63;;;;;;;;;;4882805;29;20380;-87
2022/11/22 06:45:21;;;;;;;4.50;3.00;;;;;;;;;;4892320;29;20061;-89
2022/11/22 06:47:47;;;;;;;11.05;6.47;;;;;;;;;;4866323;29;20486;-89
2022/11/22 06:50:12;;;;;;;12.90;7.28;;;;;;;;;;4866004;29;20120;-88
2022/11/22 06:52:37;;;;;;;7.18;4.18;;;;;;;;;;4882838;29;20043;-89
2022/11/22 06:55:03;;;;;;;5.75;3.97;;;;;;;;;;4882550;29;20040;-89
2022/11/22 06:57:29;;;;;;;9.63;4.93;;;;;;;;;;4882189;29;20041;-90
2022/11/22 06:59:54;;;;;;;8.38;4.93;;;;;;;;;;4865361;29;20052;-90
2022/11/22 07:02:20;;;;;;;6.75;3.70;;;;;;;;;;4865504;29;20029;-88
2022/11/22 07:04:45;;;;;;;5.38;3.58;;;;;;;;;;4881665;29;20558;-87
2022/11/22 07:07:11;;;;;;;5.68;3.50;;;;;;;;;;4882500;29;20129;-88
2022/11/22 07:09:37;;;;;;;5.80;3.40;;;;;;;;;;4880426;29;20387;-89
2022/11/22 07:12:03;;;;;;;5.53;2.60;;;;;;;;;;4865198;29;20072;-89
2022/11/22 07:14:29;;;;;;;4.40;2.80;;;;;;;;;;4864751;29;20041;-88
2022/11/22 07:16:54;;;;;;;5.50;2.92;;;;;;;;;;4865122;29;20458;-89
2022/11/22 07:19:20;;;;;;;4.38;2.60;;;;;;;;;;4849450;29;20471;-89
2022/11/22 07:21:45;;;;;;;5.30;2.45;;;;;;;;;;4880067;29;20041;-88
2022/11/22 07:24:11;;;;;;;7.82;3.60;;;;;;;;;;4880220;29;20043;-88
2022/11/22 07:26:36;;;;;;;9.07;3.90;;;;;;;;;;4880962;29;20037;-88
2022/11/22 07:29:02;;;;;;;6.82;3.53;;;;;;;;;;4865767;29;20029;-89
2022/11/22 07:31:28;;;;;;;8.32;3.78;;;;;;;;;;4879805;29;20112;-88
2022/11/22 07:33:56;;;;;;;10.23;4.30;;;;;;;;;;4881584;29;20484;-86
2022/11/22 07:36:22;;;;;;;9.80;5.00;;;;;;;;;;4885449;29;20064;-87
2022/11/22 07:38:49;;;;;;;5.60;3.55;;;;;;;;;;4892299;29;20037;-88
2022/11/22 07:41:15;;;;;;;8.38;3.70;;;;;;;;;;4877495;29;20045;-88
2022/11/22 07:43:41;;;;;;;5.65;3.58;;;;;;;;;;4866266;29;20041;-86
2022/11/22 07:46:20;;;;;;;5.65;3.70;;;;;;;;;;4871364;29;20029;-89
2022/11/22 07:48:47;;;;;;;4.15;2.50;;;;;;;;;;4880774;29;20067;-89
2022/11/22 07:51:13;;;;;;;3.90;2.30;;;;;;;;;;4864309;29;20052;-88
2022/11/22 07:53:38;;;;;;;5.20;3.08;;;;;;;;;;4882741;29;20021;-91
2022/11/22 07:56:05;;;;;;;5.63;3.42;;;;;;;;;;4881488;29;20037;-89
2022/11/22 07:58:31;;;;;;;4.30;2.58;;;;;;;;;;4881829;29;20048;-89
2022/11/22 08:00:57;;;;;;;4.57;2.13;;;;;;;;;;4881832;29;20052;-90
2022/11/22 08:03:22;;;;;;;2.83;1.90;;;;;;;;;;4864846;29;20041;-89
2022/11/22 08:05:48;;;;;;;3.97;2.55;;;;;;;;;;4864824;29;20102;-89
2022/11/22 08:08:13;;;;;;;4.10;2.80;;;;;;;;;;4881609;29;20041;-89
2022/11/22 08:10:38;;;;;;;7.55;2.80;;;;;;;;;;4883129;29;20033;-80
2022/11/22 08:13:05;;;;;;;6.47;2.70;;;;;;;;;;4882123;29;20472;-89
2022/11/22 08:15:31;;;;;;;6.38;3.00;;;;;;;;;;4864604;29;20036;-90
2022/11/22 08:17:57;;;;;;;5.07;3.42;;;;;;;;;;4865484;29;20514;-89
2022/11/22 08:20:23;;;;;;;3.30;2.08;;;;;;;;;;4891780;29;20029;-87
2022/11/22 08:22:49;;;;;;;3.42;2.10;;;;;;;;;;4880647;29;20040;-90
2022/11/22 08:25:14;;;;;;;4.05;2.53;;;;;;;;;;4863446;29;20036;-87
2022/11/22 08:27:41;;;;;;;4.20;2.50;;;;;;;;;;4863812;29;20068;-89
2022/11/22 08:30:08;;;;;;;4.60;2.95;;;;;;;;;;4878976;29;20029;-89
2022/11/22 08:32:34;;;;;;;4.28;2.67;;;;;;;;;;4878873;29;20041;-89
2022/11/22 08:34:59;;;;;;;4.20;3.00;;;;;;;;;;4863002;29;20032;-88
2022/11/22 08:37:24;;;;;;;5.80;3.60;;;;;;;;;;4862915;29;20044;-87
2022/11/22 08:39:50;;;;;;;7.65;4.30;;;;;;;;;;4879439;29;20028;-88
2022/11/22 08:42:15;;;;;;;7.25;4.10;;;;;;;;;;4880219;29;20040;-87
2022/11/22 08:44:42;;;;;;;10.23;4.30;;;;;;;;;;4880018;29;20053;-90
2022/11/22 08:47:07;;;;;;;7.90;4.25;;;;;;;;;;4867732;29;20033;-87
2022/11/22 08:49:33;;;;;;;6.22;3.25;;;;;;;;;;4869502;29;20093;-88
2022/11/22 08:51:58;;;;;;;6.45;2.50;;;;;;;;;;4899275;29;20104;-90
2022/11/22 08:54:24;;;;;;;4.55;2.50;;;;;;;;;;4867543;29;20037;-89
2022/11/22 08:56:49;;;;;;;5.32;2.55;;;;;;;;;;4899562;29;20041;-89
2022/11/22 08:59:14;;;;;;;2.67;1.88;;;;;;;;;;4882432;29;20043;-88
2022/11/22 09:01:40;;;;;;;3.58;1.90;;;;;;;;;;4900687;29;20044;-90
2022/11/22 09:04:05;;;;;;;2.33;1.33;;;;;;;;;;4884953;29;20473;-89
2022/11/22 09:06:31;;;;;;;1.30;0.98;;;;;;;;;;4882755;29;20097;-89
2022/11/22 09:08:56;;;;;;;0.82;0.57;;;;;;;;;;4899468;29;20033;-89
2022/11/22 09:11:22;;;;;;;0.50;0.38;;;;;;;;;;4899273;29;20037;-91
2022/11/22 09:13:47;;;;;;;0.95;0.50;;;;;;;;;;4899812;29;20044;-90
2022/11/22 09:16:18;;;;;;;0.68;0.50;;;;;;;;;;4900280;29;20036;-91
2022/11/22 09:18:44;;;;;;;0.77;0.50;;;;;;;;;;4900240;29;20041;-89
2022/11/22 09:21:15;;;;;;;0.93;0.55;;;;;;;;;;4882014;29;20033;-91
2022/11/22 09:23:44;;;;;;;0.60;0.60;;;;;;;;;;4882547;29;20041;-90
2022/11/22 09:26:14;;;;;;;0.60;0.60;;;;;;;;;;4899866;29;20128;-90
2022/11/22 09:28:39;;;;;;;0.65;0.52;;;;;;;;;;4881684;29;20039;-90
2022/11/22 09:31:11;;;;;;;0.98;0.60;;;;;;;;;;4882828;29;20135;-90
2022/11/22 09:33:38;;;;;;;0.98;0.60;;;;;;;;;;4882161;29;20032;-90
2022/11/22 09:36:25;;;;;;;1.98;0.88;;;;;;;;;;4898438;29;20115;-89
2022/11/22 09:38:51;;;;;;;0.70;0.60;;;;;;;;;;4881584;29;20051;-90
2022/11/22 09:41:54;;;;;;;0.68;0.65;;;;;;;;;;4881786;29;20051;-89
2022/11/22 09:44:32;;;;;;;0.75;0.60;;;;;;;;;;4881564;29;20044;-89
2022/11/22 09:47:01;;;;;;;0.50;0.47;;;;;;;;;;4882103;29;20458;-89
2022/11/22 09:50:03;;;;;;;0.60;0.50;;;;;;;;;;4906792;29;20057;-90
2022/11/22 09:52:37;;;;;;;0.73;0.40;;;;;;;;;;4883209;29;20410;-89
2022/11/22 09:55:10;;;;;;;;;;;;;;;;;;4898418;29;20100;-87
2022/11/22 09:57:46;;;;;;;0.95;0.50;;;;;;;;;;4899278;29;19925;-91
2022/11/22 10:00:26;;;;;;;0.68;0.60;;;;;;;;;;4882847;29;20043;-90
2022/11/22 10:03:10;;;;;;;1.00;0.60;;;;;;;;;;4883300;29;20112;-90
2022/11/22 10:06:05;;;;;;;1.10;0.60;;;;;;;;;;4882117;29;20040;-89
2022/11/22 10:08:38;;;;;;;1.40;0.90;;;;;;;;;;4897631;29;20135;-89
2022/11/22 10:11:13;;;;;;;0.82;0.60;;;;;;;;;;4900499;29;20043;-90
2022/11/22 10:13:50;;;;;;;0.55;0.50;;;;;;;;;;4898254;29;20040;-90
2022/11/22 10:16:24;;;;;;;1.70;0.60;;;;;;;;;;4881650;29;20139;-90
2022/11/22 10:19:01;;;;;;;2.00;0.60;;;;;;;;;;4898751;29;20124;-89
2022/11/22 10:21:27;;;;;;;0.85;0.50;;;;;;;;;;4900388;29;20044;-88
2022/11/22 10:23:53;;;;;;;0.70;0.50;;;;;;;;;;4899052;29;20061;-91
2022/11/22 10:26:26;;;;;;;0.57;0.50;;;;;;;;;;4882204;29;20405;-90
2022/11/22 10:29:03;;;;;;;0.68;0.50;;;;;;;;;;4899909;29;20517;-91
2022/11/22 10:31:37;;;;;;;2.10;0.70;;;;;;;;;;4899825;29;20052;-90
2022/11/22 10:34:12;;;;;;;0.73;0.60;;;;;;;;;;4899728;29;20095;-90
2022/11/22 10:37:04;;;;;;;0.50;0.40;;;;;;;;;;4884374;29;20040;-91
2022/11/22 10:39:53;;;;;;;0.57;0.50;;;;;;;;;;4883400;29;20068;-91
2022/11/22 10:42:43;;;;;;;0.88;0.63;;;;;;;;;;4900525;29;20041;-91
2022/11/22 10:45:40;;;;;;;1.58;0.80;;;;;;;;;;4882370;29;20056;-91
2022/11/22 10:48:27;;;;;;;4.55;2.10;;;;;;;;;;4882347;29;20040;-90
2022/11/22 10:51:11;;;;;;;1.63;1.00;;;;;;;;;;4890140;29;20051;-89
2022/11/22 10:54:09;;;;;;;1.65;1.38;;;;;;;;;;4900370;29;20135;-89
2022/11/22 10:57:03;;;;;;;2.75;1.50;;;;;;;;;;4898457;29;20123;-90
2022/11/22 10:59:39;;;;;;;2.53;1.50;;;;;;;;;;4868985;29;20482;-89
2022/11/22 11:02:46;;;;;;;2.90;2.08;;;;;;;;;;4870128;29;20088;-89
2022/11/22 11:05:16;;;;;;;2.03;1.33;;;;;;;;;;4886219;29;20036;-90
2022/11/22 11:07:47;;;;;;;4.82;1.98;;;;;;;;;;4892119;29;20044;-89
2022/11/22 11:10:20;;;;;;;12.07;7.38;;;;;;;;;;4900785;29;20060;-89
2022/11/22 11:12:51;;;;;;;9.68;5.20;;;;;;;;;;4885047;29;20036;-90
2022/11/22 11:15:23;;;;;;;13.70;4.43;;;;;;;;;;4885783;29;20505;-89
2022/11/22 11:17:54;;;;;;;11.13;3.83;;;;;;;;;;4885509;29;20434;-90
2022/11/22 11:20:30;;;;;;;10.98;3.67;;;;;;;;;;4868710;29;20040;-88
2022/11/22 11:22:56;;;;;;;17.48;4.70;;;;;;;;;;4868635;29;20491;-91
2022/11/22 11:25:30;;;;;;;3.78;1.40;;;;;;;;;;4902446;29;20028;-88
2022/11/22 11:28:18;;;;;;;1.13;0.80;;;;;;;;;;4885017;29;20056;-89
2022/11/22 11:30:49;;;;;;;2.58;1.45;;;;;;;;;;4900707;29;20044;-91
2022/11/22 11:33:22;;;;;;;3.05;2.22;;;;;;;;;;4901403;29;20075;-89
2022/11/22 11:35:51;;;;;;;2.47;1.88;;;;;;;;;;4869416;29;20060;-91
2022/11/22 11:38:53;;;;;;;3.88;2.00;;;;;;;;;;4901258;29;20123;-90
2022/11/22 11:41:32;;;;;;;5.05;2.03;;;;;;;;;;4873377;23;20044;-85
2022/11/22 11:44:00;;;;;;;3.35;2.33;;;;;;;;;;4929594;29;20043;-84
2022/11/22 11:46:27;;;;;;;4.30;2.80;;;;;;;;;;4928633;29;20039;-87
2022/11/22 11:49:09;;;;;;;5.53;3.33;;;;;;;;;;4929516;29;20043;-88
2022/11/22 11:51:37;;;;;;;5.43;2.80;;;;;;;;;;4909091;29;20048;-86
2022/11/22 11:54:14;;;;;;;6.55;3.00;;;;;;;;;;4911563;29;20088;-86
2022/11/22 11:56:55;;;;;;;6.78;4.00;;;;;;;;;;4912105;29;20095;-85
2022/11/22 11:59:22;;;;;;;4.15;2.53;;;;;;;;;;4911072;29;20040;-83
2022/11/22 12:02:10;;;;;;;4.80;2.92;;;;;;;;;;4910738;29;20055;-86
2022/11/22 12:04:55;;;;;;;4.25;2.63;;;;;;;;;;4924083;29;20091;-87
2022/11/22 12:07:36;;;;;;;6.85;3.90;;;;;;;;;;4929754;29;20070;-86
2022/11/22 12:10:24;;;;;;;4.80;3.00;;;;;;;;;;4927470;29;20046;-85
2022/11/22 12:12:53;;;;;;;4.55;3.00;;;;;;;;;;4927216;29;20047;-87
2022/11/22 12:15:37;;;;;;;4.68;2.83;;;;;;;;;;4911326;29;20039;-85
2022/11/22 12:18:15;;;;;;;6.00;3.72;;;;;;;;;;4928985;29;20039;-86
2022/11/22 12:20:46;;;;;;;4.78;2.80;;;;;;;;;;4927994;29;20091;-86
2022/11/22 12:23:21;;;;;;;3.25;2.08;;;;;;;;;;4906798;29;20044;-85
2022/11/22 12:25:52;;;;;;;6.90;2.97;;;;;;;;;;4907908;29;20446;-84
2022/11/22 12:28:20;;;;;;;7.47;3.10;;;;;;;;;;4907640;29;20048;-85
2022/11/22 12:30:51;;;;;;;6.40;3.13;;;;;;;;;;4906802;29;20036;-86
2022/11/22 12:33:28;;;;;;;4.57;2.80;;;;;;;;;;4908437;29;20044;-86
2022/11/22 12:35:55;;;;;;;3.92;2.42;;;;;;;;;;4890337;29;20020;-86
2022/11/22 12:38:27;;;;;;;7.57;3.92;;;;;;;;;;4906497;29;20027;-87
2022/11/22 12:40:55;;;;;;;5.97;3.50;;;;;;;;;;4904402;29;20040;-84
2022/11/22 12:43:22;;;;;;;3.97;2.10;;;;;;;;;;4910489;29;20099;-86
2022/11/22 12:45:52;;;;;;;4.82;2.65;;;;;;;;;;4893360;29;20040;-83
2022/11/22 12:48:25;;;;;;;4.72;1.67;;;;;;;;;;4910260;29;20047;-85
2022/11/22 12:50:54;;;;;;;3.20;2.00;;;;;;;;;;4911553;29;20041;-85
2022/11/22 12:53:28;;;;;;;3.30;1.80;;;;;;;;;;4910845;29;20049;-84
2022/11/22 12:56:08;;;;;;;3.22;2.00;;;;;;;;;;4909785;29;20106;-86
2022/11/22 12:58:40;;;;;;;3.90;1.95;;;;;;;;;;4893479;29;20052;-84
2022/11/22 13:01:14;;;;;;;5.13;3.28;;;;;;;;;;4909751;29;20067;-86
2022/11/22 13:03:58;;;;;;;6.47;3.95;;;;;;;;;;4910133;29;20068;-85
2022/11/22 13:06:26;;;;;;;;;;;;;;;;;;4911201;29;20059;-82
2022/11/22 13:09:14;;;;;;;3.30;2.10;;;;;;;;;;4911274;29;19923;-85
2022/11/22 13:11:49;;;;;;;3.40;1.88;;;;;;;;;;4910668;29;20072;-86
2022/11/22 13:14:18;;;;;;;4.28;2.63;;;;;;;;;;4910561;29;20044;-85
2022/11/22 13:16:44;;;;;;;2.65;1.83;;;;;;;;;;4894891;29;20040;-85
2022/11/22 13:19:14;;;;;;;3.53;1.98;;;;;;;;;;4910249;29;20056;-84
2022/11/22 13:22:08;;;;;;;3.25;2.10;;;;;;;;;;4909955;29;20044;-86
2022/11/22 13:24:40;;;;;;;;;;;;;;;;;;4908552;29;20028;-82
2022/11/22 13:27:24;;;;;;;4.43;2.63;;;;;;;;;;4907310;29;19919;-85
2022/11/22 13:29:54;;;;;;;4.05;2.50;;;;;;;;;;4908782;29;20120;-85
2022/11/22 13:32:22;;;;;;;3.95;2.70;;;;;;;;;;4908384;29;20032;-84
2022/11/22 13:35:28;;;;;;;5.40;2.38;;;;;;;;;;4904667;29;20060;-83
2022/11/22 13:38:01;;;;;;;2.95;1.63;;;;;;;;;;4905540;29;20048;-85
2022/11/22 13:40:31;;;;;;;3.00;1.90;;;;;;;;;;4904120;29;20044;-84
2022/11/22 13:43:12;;;;;;;3.53;1.85;;;;;;;;;;4907562;29;20051;-85
2022/11/22 13:46:00;;;;;;;3.03;1.67;;;;;;;;;;4889771;29;20143;-84
2022/11/22 13:48:38;;;;;;;3.10;1.70;;;;;;;;;;4908702;29;20067;-83
2022/11/22 13:51:32;;;;;;;3.97;1.70;;;;;;;;;;4910306;29;20032;-86
2022/11/22 13:54:23;;;;;;;;;;;;;;;;;;4910565;29;20064;-81
2022/11/22 13:57:01;;;;;;;5.97;2.53;;;;;;;;;;4909924;29;19942;-87
2022/11/22 13:59:27;;;;;;;5.90;3.40;;;;;;;;;;4907784;29;20037;-89
2022/11/22 14:27:39;;;;;;;9.63;4.82;;;;;;;;;;1454358;27;20052;-89
2022/11/22 14:33:12;;;;;;;7.60;5.03;;;;;;;;;;4861651;29;20104;-86
2022/11/22 14:55:42;;;;;;;5.93;2.53;;;;;;;;;;5399642;23;20122;-87
2022/11/22 14:58:14;;;;;;;4.50;2.45;;;;;;;;;;4908393;29;20490;-91
2022/11/22 15:00:42;;;;;;;3.92;2.72;;;;;;;;;;4925352;29;20037;-89
2022/11/22 15:03:32;;;;;;;4.82;3.17;;;;;;;;;;4907065;29;20020;-89
2022/11/22 15:06:06;;;;;;;5.72;2.85;;;;;;;;;;4904351;29;20048;-90
2022/11/22 15:08:44;;;;;;;3.30;1.98;;;;;;;;;;4889812;29;20115;-88
2022/11/22 15:11:34;;;;;;;4.40;2.40;;;;;;;;;;4898755;23;20033;-86
2022/11/22 15:14:28;;;;;;;5.45;3.10;;;;;;;;;;4884157;29;20048;-86
2022/11/22 15:16:56;;;;;;;6.50;3.10;;;;;;;;;;4901420;29;20048;-87
2022/11/22 15:19:40;;;;;;;5.88;3.00;;;;;;;;;;4885465;29;20060;-86
2022/11/22 15:22:11;;;;;;;6.30;2.67;;;;;;;;;;4894368;29;20051;-87
2022/11/22 15:24:39;;;;;;;4.15;2.70;;;;;;;;;;4867651;29;20040;-89
2022/11/22 15:27:42;;;;;;;5.72;2.97;;;;;;;;;;4892728;29;20029;-88
2022/11/22 15:30:19;;;;;;;4.43;2.80;;;;;;;;;;4872235;29;20037;-88
2022/11/22 15:32:49;;;;;;;5.55;2.95;;;;;;;;;;4888486;29;20624;-89
2022/11/22 15:35:17;;;;;;;4.85;2.80;;;;;;;;;;4886558;29;20102;-89
2022/11/22 15:37:49;;;;;;;5.10;3.70;;;;;;;;;;4887492;29;20096;-89
2022/11/22 15:40:18;;;;;;;5.57;3.40;;;;;;;;;;4887136;29;20060;-88
2022/11/22 15:43:00;;;;;;;4.43;2.78;;;;;;;;;;4887371;29;20498;-88
2022/11/22 15:45:28;;;;;;;6.75;3.10;;;;;;;;;;4886891;29;20045;-87
2022/11/22 15:48:01;;;;;;;5.35;3.30;;;;;;;;;;4888051;29;20116;-90
2022/11/22 15:50:26;;;;;;;6.30;3.67;;;;;;;;;;4885792;29;20043;-90
2022/11/22 15:53:05;;;;;;;6.68;3.90;;;;;;;;;;4870118;29;20131;-89
2022/11/22 15:55:31;;;;;;;5.35;2.70;;;;;;;;;;4888284;29;20112;-87
2022/11/22 15:57:56;;;;;;;3.95;2.30;;;;;;;;;;4888771;29;20518;-89
2022/11/22 16:00:25;;;;;;;3.55;1.75;;;;;;;;;;4885427;29;20037;-90
2022/11/22 16:02:54;;;;;;;3.65;2.05;;;;;;;;;;4885152;29;20033;-90
2022/11/22 16:05:30;;;;;;;2.45;1.55;;;;;;;;;;4884322;29;20453;-88
2022/11/22 16:07:56;;;;;;;3.70;2.30;;;;;;;;;;4868166;29;20041;-87
2022/11/22 16:10:31;;;;;;;4.40;2.60;;;;;;;;;;4868384;29;20092;-86